Time;durP1;ratioP1;P1;durP2;ratioP2;P2;SDS_P1;SDS_P2;PMS_P1;PMS_P2;Temp;Humidity;BMP_temperature;BMP_pressure;BME280_temperature;BME280_humidity;BME280_pressure;Samples;Min_cycle;Max_cycle;Signal;HPM_P1;HPM_P2
2022/07/10 00:02:03;;;;;;;9.07;1.38;;;14.70;99.90;;;13.61;87.27;101399.22;4961610;28;20042;-79
2022/07/10 00:04:29;;;;;;;13.20;1.40;;;14.70;99.90;;;13.65;86.89;101394.59;4948110;28;20034;-78
2022/07/10 00:07:02;;;;;;;11.90;1.20;;;14.70;99.90;;;13.61;87.12;101383.34;4937982;28;20224;-79
2022/07/10 00:09:28;;;;;;;6.95;1.17;;;14.60;99.90;;;13.54;88.07;101397.78;4959354;28;20034;-78
2022/07/10 00:11:54;;;;;;;6.75;1.23;;;14.60;99.90;;;13.48;88.03;101412.16;4913834;28;20038;-79
2022/07/10 00:14:20;;;;;;;9.77;1.30;;;14.60;99.90;;;13.49;88.70;101413.88;4921672;28;20034;-79
2022/07/10 00:16:46;;;;;;;9.43;1.35;;;14.50;99.90;;;13.40;88.89;101424.06;4904691;28;20644;-78
2022/07/10 00:19:15;;;;;;;7.72;1.42;;;14.50;99.90;;;13.33;89.01;101419.03;4928903;28;20033;-79
2022/07/10 00:21:41;;;;;;;9.15;1.30;;;14.50;99.90;;;13.37;89.17;101418.88;4931673;28;20029;-78
2022/07/10 00:24:07;;;;;;;9.07;1.17;;;14.50;99.90;;;13.33;89.61;101415.56;4932336;28;20037;-79
2022/07/10 00:26:32;;;;;;;11.55;1.05;;;14.40;99.90;;;13.30;89.83;101413.03;4930635;28;20036;-79
2022/07/10 00:28:58;;;;;;;7.55;1.30;;;14.40;99.90;;;13.25;90.79;101400.00;4932710;28;20137;-79
2022/07/10 00:31:24;;;;;;;11.38;1.50;;;14.40;99.90;;;13.20;90.86;101407.31;4951838;28;20041;-79
2022/07/10 00:33:51;;;;;;;4.63;1.20;;;14.30;99.90;;;13.14;91.32;101405.78;4922124;28;20042;-78
2022/07/10 00:36:18;;;;;;;11.98;1.50;;;14.30;99.90;;;13.06;91.47;101399.13;4951421;28;20080;-78
2022/07/10 00:38:45;;;;;;;10.07;1.67;;;14.20;99.90;;;13.04;91.18;101396.56;4951903;28;21027;-78
2022/07/10 00:41:11;;;;;;;7.53;1.35;;;14.10;99.90;;;12.99;90.21;101392.44;4943220;28;20095;-78
2022/07/10 00:43:54;;;;;;;9.38;1.50;;;14.10;99.90;;;12.97;89.57;101389.00;4930794;28;20042;-78
2022/07/10 00:46:20;;;;;;;5.97;1.15;;;14.10;99.90;;;12.95;89.84;101388.22;4948836;28;20025;-79
2022/07/10 00:48:52;;;;;;;11.48;1.42;;;14.10;99.90;;;12.98;89.75;101390.69;4911042;28;20029;-78
2022/07/10 00:51:23;;;;;;;8.65;1.63;;;14.10;99.90;;;12.99;89.04;101392.44;4925178;28;20039;-78
2022/07/10 00:53:49;;;;;;;10.48;1.30;;;14.10;99.90;;;12.92;89.36;101397.16;4925049;28;20022;-78
2022/07/10 00:56:25;;;;;;;7.65;1.33;;;14.00;99.90;;;12.87;88.56;101381.50;4967422;28;20041;-80
2022/07/10 00:58:51;;;;;;;9.52;1.63;;;14.00;99.90;;;12.88;88.28;101382.34;4940179;28;20059;-79
2022/07/10 01:01:17;;;;;;;10.00;1.80;;;14.00;99.90;;;12.85;88.69;101382.47;4933324;28;20046;-78
2022/07/10 01:03:49;;;;;;;13.20;1.90;;;14.00;99.90;;;12.85;88.37;101377.19;4909355;28;20030;-80
2022/07/10 01:06:16;;;;;;;11.35;1.55;;;14.00;99.90;;;12.80;87.64;101376.56;4960631;28;20021;-79
2022/07/10 01:08:43;;;;;;;12.50;1.88;;;14.00;99.90;;;12.81;88.26;101383.56;4942679;28;20029;-79
2022/07/10 01:11:11;;;;;;;12.25;1.90;;;13.90;99.90;;;12.77;88.38;101376.69;4952579;28;20038;-79
2022/07/10 01:13:42;;;;;;;13.93;1.70;;;13.90;99.90;;;12.71;88.85;101377.81;4944350;28;20037;-78
2022/07/10 01:16:07;;;;;;;10.90;1.90;;;13.80;99.90;;;12.60;88.80;101375.66;4942466;28;20089;-78
2022/07/10 01:18:33;;;;;;;11.85;1.70;;;13.70;99.90;;;12.52;89.13;101376.00;4931968;28;20113;-79
2022/07/10 01:20:59;;;;;;;13.52;2.47;;;13.60;99.90;;;12.41;89.16;101374.75;4936402;28;20022;-78
2022/07/10 01:23:25;;;;;;;13.10;1.55;;;13.60;99.90;;;12.32;90.32;101374.22;5004387;28;20112;-79
2022/07/10 01:26:02;;;;;;;8.25;1.65;;;13.50;99.90;;;12.22;90.63;101369.41;4933286;28;20238;-79
2022/07/10 01:28:29;;;;;;;12.43;1.70;;;13.40;99.90;;;12.08;91.47;101373.50;4924224;28;20108;-78
2022/07/10 01:31:03;;;;;;;15.93;1.80;;;13.30;99.90;;;12.00;91.87;101370.34;4896603;28;20093;-79
2022/07/10 01:33:28;;;;;;;11.98;1.75;;;13.10;99.90;;;11.93;91.11;101373.31;4931568;28;20514;-79
2022/07/10 01:35:54;;;;;;;10.30;1.83;;;13.10;99.90;;;11.86;92.10;101372.69;4955235;28;20044;-79
2022/07/10 01:38:20;;;;;;;19.60;2.15;;;13.00;99.90;;;11.77;92.08;101370.41;4938994;28;20069;-79
2022/07/10 01:40:45;;;;;;;13.85;2.20;;;12.90;99.90;;;11.68;90.94;101367.25;4939346;28;20034;-78
2022/07/10 01:43:17;;;;;;;8.68;1.80;;;12.80;99.90;;;11.60;91.21;101368.47;4973861;28;20033;-79
2022/07/10 01:45:44;;;;;;;10.80;1.70;;;12.60;99.90;;;11.47;92.47;101371.59;4928627;28;20040;-79
2022/07/10 01:48:10;;;;;;;17.33;2.08;;;12.60;99.90;;;11.43;92.28;101362.09;4931721;28;20239;-78
2022/07/10 01:50:35;;;;;;;13.65;2.20;;;12.50;99.90;;;11.34;92.99;101367.75;4920568;28;20045;-79
2022/07/10 01:53:04;;;;;;;14.10;2.00;;;12.50;99.90;;;11.30;93.62;101374.06;4939345;28;20033;-78
2022/07/10 01:55:32;;;;;;;14.68;2.00;;;12.40;99.90;;;11.27;94.58;101368.88;4946994;28;20489;-78
2022/07/10 01:57:57;;;;;;;14.07;1.83;;;12.40;99.90;;;11.24;94.91;101369.88;4939005;28;20039;-78
2022/07/10 02:00:23;;;;;;;16.33;2.60;;;12.40;99.90;;;11.22;95.94;101371.69;4942976;28;20026;-78
2022/07/10 02:05:34;;;;;;;15.43;2.15;;;12.30;99.90;;;11.22;97.91;101369.06;4942174;28;20063;-80
2022/07/10 02:08:05;;;;;;;13.90;2.70;;;12.30;99.90;;;11.23;98.22;101357.63;4949207;28;20029;-78
2022/07/10 02:10:31;;;;;;;15.73;2.03;;;12.30;99.90;;;11.26;98.78;101360.13;4949367;28;20029;-78
2022/07/10 02:12:58;;;;;;;15.48;2.55;;;12.40;99.90;;;11.32;99.13;101361.66;4953817;28;20034;-78
2022/07/10 02:15:24;;;;;;;14.55;2.30;;;12.40;99.90;;;11.34;99.70;101348.41;4935890;28;20026;-79
2022/07/10 02:17:50;;;;;;;19.15;2.33;;;12.50;99.90;;;11.40;100.00;101358.72;4971279;28;20182;-79
2022/07/10 02:20:15;;;;;;;17.35;2.35;;;12.50;99.90;;;11.44;100.00;101347.13;4914635;28;20042;-79
2022/07/10 02:22:44;;;;;;;20.83;2.40;;;12.50;99.90;;;11.51;99.76;101340.66;4918443;28;20034;-78
2022/07/10 02:25:10;;;;;;;14.60;2.10;;;;;;;11.56;99.57;101337.88;4934617;28;20506;-78
2022/07/10 02:27:36;;;;;;;19.25;2.40;;;12.60;99.90;;;11.60;99.41;101335.03;4927031;28;20485;-79
2022/07/10 02:30:02;;;;;;;16.92;2.60;;;12.70;99.90;;;11.65;98.88;101329.56;4918209;28;20028;-79
2022/07/10 02:32:27;;;;;;;22.98;2.70;;;12.80;99.90;;;11.69;98.54;101326.75;4915986;28;20038;-78
2022/07/10 02:34:53;;;;;;;18.33;2.65;;;12.80;99.90;;;11.75;98.71;101327.41;4923855;28;20064;-78
2022/07/10 02:37:25;;;;;;;18.52;2.75;;;12.80;99.90;;;11.79;98.27;101329.88;4936380;28;20049;-79
2022/07/10 02:39:50;;;;;;;19.83;2.42;;;12.80;99.90;;;11.83;98.08;101333.22;4949458;28;20047;-78
2022/07/10 02:42:16;;;;;;;19.45;2.78;;;12.90;99.90;;;11.84;98.76;101343.72;4934631;28;20046;-79
2022/07/10 02:44:42;;;;;;;14.50;2.20;;;12.80;99.90;;;11.85;98.58;101337.50;4938843;28;20046;-79
2022/07/10 02:47:08;;;;;;;11.02;2.40;;;12.90;99.90;;;11.88;98.98;101337.41;4954648;28;20120;-78
2022/07/10 02:49:34;;;;;;;10.73;1.85;;;13.20;99.90;;;11.92;98.68;101347.84;4924659;28;20029;-78
2022/07/10 02:52:07;;;;;;;18.73;2.42;;;13.00;99.90;;;11.91;98.87;101344.34;4906627;28;20038;-77
2022/07/10 02:54:33;;;;;;;14.90;2.35;;;13.00;99.90;;;11.91;98.61;101346.97;4939051;28;20058;-78
2022/07/10 02:56:58;;;;;;;16.20;2.35;;;13.00;99.90;;;11.90;98.91;101345.28;4932538;28;20035;-77
2022/07/10 02:59:24;;;;;;;12.88;2.05;;;13.00;99.90;;;11.91;98.57;101344.34;4934253;28;20101;-78
2022/07/10 03:01:50;;;;;;;14.52;2.15;;;13.00;99.90;;;11.97;97.90;101345.88;4973352;28;20030;-77
2022/07/10 03:04:20;;;;;;;15.35;2.38;;;13.00;99.90;;;11.98;98.03;101345.78;4980670;28;20494;-78
2022/07/10 03:06:46;;;;;;;13.90;2.10;;;13.00;99.90;;;11.97;97.94;101343.25;4936924;28;20034;-78
2022/07/10 03:09:12;;;;;;;18.38;2.60;;;13.00;99.90;;;12.01;97.46;101353.59;4981323;28;20077;-77
2022/07/10 03:11:38;;;;;;;22.42;2.85;;;13.10;99.90;;;12.05;96.89;101352.53;4922111;28;20048;-78
2022/07/10 03:14:03;;;;;;;15.35;2.15;;;13.10;99.90;;;12.11;96.87;101344.34;4904669;28;20088;-79
2022/07/10 03:16:29;;;;;;;20.13;2.42;;;13.10;99.90;;;12.10;96.68;101350.56;4921850;28;20086;-78
2022/07/10 03:19:00;;;;;;;12.65;1.90;;;13.10;99.90;;;12.14;96.15;101348.66;4927580;28;20042;-78
2022/07/10 03:21:26;;;;;;;13.70;2.47;;;13.20;99.90;;;12.15;96.68;101346.84;4905255;28;20038;-78
2022/07/10 03:23:52;;;;;;;18.55;2.42;;;13.20;99.90;;;12.18;96.47;101347.59;4989528;28;20482;-78
2022/07/10 03:26:17;;;;;;;21.52;2.63;;;13.20;99.90;;;12.17;95.98;101353.78;4940961;28;20057;-78
2022/07/10 03:28:43;;;;;;;16.65;2.33;;;13.20;99.90;;;12.17;95.77;101353.78;4964016;28;20118;-79
2022/07/10 03:31:09;;;;;;;12.57;1.90;;;13.20;99.90;;;12.13;96.02;101351.34;4950302;28;20116;-78
2022/07/10 03:33:39;;;;;;;16.42;2.30;;;13.20;99.90;;;12.16;96.42;101353.84;4900078;28;20046;-78
2022/07/10 03:36:06;;;;;;;10.98;2.17;;;13.20;99.90;;;12.21;96.31;101354.50;4927017;28;20026;-78
2022/07/10 03:38:31;;;;;;;14.55;2.42;;;13.20;99.90;;;12.21;95.95;101349.22;4929327;28;20054;-78
2022/07/10 03:40:58;;;;;;;12.02;2.25;;;13.30;99.90;;;12.20;95.83;101348.38;4943242;28;20029;-78
2022/07/10 03:43:24;;;;;;;22.98;2.30;;;13.20;99.90;;;12.18;96.04;101344.94;4961993;28;20040;-78
2022/07/10 03:45:51;;;;;;;15.68;2.67;;;13.30;99.90;;;12.23;96.03;101344.75;4961250;28;20029;-78
2022/07/10 03:48:20;;;;;;;11.98;1.95;;;13.30;99.90;;;12.22;96.35;101348.28;4988099;28;20042;-78
2022/07/10 03:50:50;;;;;;;24.10;3.00;;;13.30;99.90;;;12.23;97.10;101345.59;4914031;28;20035;-77
2022/07/10 03:53:17;;;;;;;19.83;2.42;;;13.20;99.90;;;12.19;97.13;101353.72;4914147;28;20045;-78
2022/07/10 03:55:50;;;;;;;16.17;2.20;;;13.30;99.90;;;12.17;96.58;101350.28;4953875;28;20026;-77
2022/07/10 03:58:16;;;;;;;20.45;2.60;;;13.30;99.90;;;12.14;96.91;101351.28;4945048;28;20073;-78
2022/07/10 04:00:43;;;;;;;16.75;2.40;;;13.20;99.90;;;12.14;97.17;101346.00;4958434;28;20030;-77
2022/07/10 04:03:09;;;;;;;14.20;2.13;;;13.20;99.90;;;12.20;97.03;101352.78;4965718;28;20044;-78
2022/07/10 04:05:36;;;;;;;14.68;2.40;;;;;;;12.53;96.20;101358.38;4955130;28;20107;-78
2022/07/10 04:08:09;;;;;;;15.55;2.25;;;13.70;99.90;;;12.90;94.46;101360.19;4949805;28;20510;-78
2022/07/10 04:10:36;;;;;;;13.73;2.05;;;14.20;99.90;;;13.43;91.09;101355.13;4922013;28;20033;-78
2022/07/10 04:13:02;;;;;;;19.20;2.28;;;14.80;99.90;;;14.43;86.76;101358.88;4946457;28;22864;-79
2022/07/10 04:15:36;;;;;;;16.80;2.50;;;16.10;99.90;;;16.29;78.99;101372.34;4898620;28;20671;-78
2022/07/10 04:18:02;;;;;;;13.07;2.10;;;17.50;99.90;;;17.50;71.67;101369.22;4925884;28;20034;-78
2022/07/10 04:20:28;;;;;;;18.25;2.20;;;17.40;99.90;;;16.88;71.36;101368.78;4928796;28;20421;-78
2022/07/10 04:22:54;;;;;;;19.75;3.05;;;17.10;99.90;;;16.17;72.72;101355.31;4952136;28;20026;-79
2022/07/10 04:25:24;;;;;;;13.00;2.15;;;16.70;99.90;;;15.74;75.12;101357.00;4936502;28;20068;-78
2022/07/10 04:27:50;;;;;;;13.57;2.15;;;17.80;99.90;;;18.19;69.49;101380.63;4923457;28;20027;-78
2022/07/10 04:30:15;;;;;;;18.17;2.67;;;19.40;99.90;;;20.35;62.32;101383.72;4937798;28;20057;-78
2022/07/10 04:32:41;;;;;;;;;;;20.70;99.90;;;22.50;55.78;101387.59;4975759;28;20041;-79
2022/07/10 04:35:07;;;;;;;15.10;2.42;;;22.20;99.90;;;24.24;50.90;101386.28;4922892;28;20005;-78
2022/07/10 04:37:34;;;;;;;13.20;2.65;;;24.00;99.90;;;25.58;48.01;101401.16;4935454;28;20033;-79
2022/07/10 04:40:03;;;;;;;19.92;2.75;;;24.80;97.50;;;25.56;46.99;101386.97;4931785;28;20407;-79
2022/07/10 04:42:29;;;;;;;21.13;3.10;;;23.90;97.40;;;22.94;51.17;101370.28;4939818;28;20022;-78
2022/07/10 04:44:54;;;;;;;18.20;3.10;;;23.10;98.20;;;22.53;52.57;101374.78;4945036;28;20049;-79
2022/07/10 04:47:20;;;;;;;16.27;2.67;;;23.10;98.20;;;23.34;50.89;101390.91;4920262;28;20687;-78
2022/07/10 04:49:46;;;;;;;;;;;23.20;98.20;;;23.94;48.68;101406.13;4931240;28;20119;-79
2022/07/10 04:52:11;;;;;;;13.52;2.13;;;23.90;96.90;;;24.77;47.74;101403.72;4944861;28;20016;-78
2022/07/10 04:54:37;;;;;;;16.90;2.80;;;24.20;96.20;;;25.05;46.98;101409.97;4958309;28;20052;-78
2022/07/10 04:57:09;;;;;;;14.05;2.20;;;24.00;95.60;;;24.11;47.92;101399.19;4946612;28;20081;-80
2022/07/10 04:59:35;;;;;;;11.82;2.75;;;23.80;96.00;;;24.27;47.77;101404.81;4982285;28;20048;-79
2022/07/10 05:02:01;;;;;;;17.85;2.60;;;23.60;96.10;;;24.12;48.19;101406.25;4939260;28;20069;-79
2022/07/10 05:04:26;;;;;;;11.48;2.05;;;23.80;96.10;;;24.68;47.04;101404.59;4913739;28;20049;-79
2022/07/10 05:06:52;;;;;;;11.73;2.40;;;23.80;95.70;;;24.56;46.87;101404.78;4927840;28;20057;-79
2022/07/10 05:09:21;;;;;;;13.77;2.53;;;23.90;96.00;;;25.08;45.94;101420.44;4914217;28;20116;-78
2022/07/10 05:11:50;;;;;;;17.63;2.75;;;23.80;95.60;;;24.79;46.46;101412.50;4918568;28;20053;-78
2022/07/10 05:14:16;;;;;;;19.10;2.90;;;;;;;26.11;44.48;101428.28;4937929;28;20069;-79
2022/07/10 05:16:42;;;;;;;12.85;2.30;;;24.70;94.60;;;26.29;43.21;101422.88;4961768;28;20048;-79
2022/07/10 05:19:08;;;;;;;13.07;2.30;;;24.80;94.20;;;26.31;43.08;101420.88;4927296;28;22801;-78
2022/07/10 05:21:33;;;;;;;17.50;2.92;;;25.20;94.30;;;27.22;41.85;101430.38;4950333;22;20136;-79
2022/07/10 05:24:07;;;;;;;10.98;2.17;;;25.60;93.80;;;27.79;40.78;101422.38;4971633;28;20022;-78
2022/07/10 05:26:32;;;;;;;10.38;2.13;;;25.50;93.10;;;26.87;41.88;101426.78;4969228;28;20025;-80
2022/07/10 05:28:58;;;;;;;11.38;2.30;;;25.50;93.30;;;27.06;41.55;101426.53;4945063;28;20045;-78
2022/07/10 05:31:24;;;;;;;;;;;25.00;92.80;;;25.84;42.05;101424.66;4914313;28;20121;-79
2022/07/10 05:33:50;;;;;;;21.48;2.95;;;24.90;93.70;;;26.61;42.26;101435.78;4954720;28;20004;-79
2022/07/10 05:36:25;;;;;;;11.85;1.98;;;25.20;93.50;;;26.98;40.97;101438.19;4910772;28;20031;-79
2022/07/10 05:38:50;;;;;;;15.60;2.40;;;25.60;93.30;;;27.90;39.90;101445.59;4942159;28;20418;-78
2022/07/10 05:41:16;;;;;;;12.02;2.00;;;26.10;92.80;;;28.64;39.02;101446.44;4976233;22;20037;-79
2022/07/10 05:43:42;;;;;;;15.00;2.63;;;25.90;91.60;;;27.43;39.69;101447.00;4960579;28;20493;-79
2022/07/10 05:46:08;;;;;;;;;;;25.90;93.10;;;26.75;39.61;101447.84;4956883;28;20782;-79
2022/07/10 05:48:38;;;;;;;17.85;2.38;;;25.50;91.80;;;27.11;39.90;101453.94;4928083;28;20523;-79
2022/07/10 05:51:04;;;;;;;9.10;1.45;;;25.20;91.70;;;26.23;40.93;101459.44;4938315;28;20661;-78
2022/07/10 05:53:30;;;;;;;12.00;2.00;;;25.10;92.30;;;26.67;41.06;101462.13;4936837;28;20042;-78
2022/07/10 05:56:05;;;;;;;13.65;2.58;;;25.30;92.20;;;27.20;40.00;101463.78;4939720;28;20040;-78
2022/07/10 05:58:30;;;;;;;14.38;2.70;;;25.10;92.40;;;26.82;40.36;101475.06;4945842;28;20129;-78
2022/07/10 06:00:56;;;;;;;8.90;1.55;;;25.30;92.30;;;26.80;40.28;101475.22;4934134;23;20518;-79
2022/07/10 06:03:22;;;;;;;19.17;2.28;;;24.80;92.00;;;25.21;42.37;101471.34;4898015;28;20528;-79
2022/07/10 06:05:48;;;;;;;11.25;2.08;;;24.60;92.60;;;25.06;42.65;101470.94;4912444;28;22138;-77
2022/07/10 06:08:13;;;;;;;15.90;2.63;;;24.10;93.00;;;25.04;43.74;101470.25;4912104;28;20026;-79
2022/07/10 06:10:43;;;;;;;15.85;2.25;;;24.10;93.00;;;24.98;43.23;101473.53;4901491;28;20030;-76
2022/07/10 06:13:11;;;;;;;12.25;2.00;;;24.20;93.10;;;25.46;42.27;101487.81;4936966;28;20513;-77
2022/07/10 06:15:36;;;;;;;7.65;1.65;;;24.50;93.10;;;25.64;42.43;101483.31;4924588;28;20487;-79
2022/07/10 06:18:03;;;;;;;11.70;2.08;;;24.40;93.00;;;24.68;43.63;101472.75;4904300;28;20081;-78
2022/07/10 06:20:29;;;;;;;12.13;2.05;;;24.20;93.40;;;24.38;44.34;101486.38;4967334;22;20049;-78
2022/07/10 06:22:54;;;;;;;13.35;2.22;;;24.20;93.50;;;25.13;43.61;101487.38;5001761;28;20049;-78
2022/07/10 06:25:24;;;;;;;10.35;2.22;;;24.50;93.10;;;25.56;42.42;101494.00;4993080;28;20154;-78
2022/07/10 06:27:50;;;;;;;14.38;2.15;;;24.60;92.70;;;24.31;44.10;101484.25;4946456;28;20030;-78
2022/07/10 06:30:16;;;;;;;11.15;2.08;;;23.70;92.70;;;21.91;48.01;101461.41;4954507;28;20031;-78
2022/07/10 06:32:42;;;;;;;15.20;2.63;;;22.30;94.20;;;20.15;52.25;101458.31;4944970;28;20035;-77
2022/07/10 06:35:08;;;;;;;14.95;2.03;;;21.20;96.10;;;18.99;55.96;101455.13;4939177;28;20033;-78
2022/07/10 06:37:34;;;;;;;15.95;2.35;;;20.40;98.20;;;19.04;56.81;101468.13;4936168;28;20587;-78
2022/07/10 06:40:05;;;;;;;18.70;2.78;;;;;;;18.56;58.33;101466.06;4930252;28;20041;-78
2022/07/10 06:42:30;;;;;;;18.40;3.08;;;19.40;99.80;;;17.89;60.35;101463.47;4987902;28;20408;-78
2022/07/10 06:44:56;;;;;;;16.63;2.42;;;19.00;99.90;;;17.70;61.33;101458.44;4941528;28;20022;-78
2022/07/10 06:50:16;;;;;;;11.73;2.08;;;18.40;99.90;;;17.18;63.62;101446.66;4931532;28;20040;-78
2022/07/10 06:52:42;;;;;;;18.27;2.33;;;18.10;99.90;;;16.89;65.05;101453.81;4931300;28;20025;-77
2022/07/10 06:55:08;;;;;;;15.18;2.80;;;17.80;99.90;;;16.73;66.06;101437.88;4944306;28;20074;-78
2022/07/10 06:57:35;;;;;;;16.30;2.10;;;17.80;99.90;;;16.69;65.69;101432.84;4951671;28;20036;-78
2022/07/10 07:00:07;;;;;;;10.82;1.73;;;17.70;99.90;;;16.69;66.63;101432.84;4953786;28;20050;-77
2022/07/10 07:02:33;;;;;;;13.35;2.40;;;17.60;99.90;;;16.51;66.12;101440.16;4963999;28;20726;-78
2022/07/10 07:04:58;;;;;;;14.35;1.88;;;17.50;99.90;;;16.44;66.84;101433.50;4961307;28;20027;-77
2022/07/10 07:07:24;;;;;;;15.55;2.45;;;17.50;99.90;;;16.71;66.63;101434.47;4923297;28;20046;-78
2022/07/10 07:09:50;;;;;;;10.95;1.95;;;17.50;99.90;;;16.54;66.31;101424.88;4941750;28;20044;-77
2022/07/10 07:12:19;;;;;;;14.80;3.03;;;17.60;99.90;;;17.36;64.99;101433.13;4938086;28;20105;-78
2022/07/10 07:14:46;;;;;;;13.65;2.17;;;18.50;99.90;;;19.16;60.16;101431.72;4957349;28;20022;-78
2022/07/10 07:17:14;;;;;;;16.75;2.30;;;19.10;99.90;;;19.30;57.74;101436.91;4952799;28;20046;-79
2022/07/10 07:25:11;;;;;;;10.65;1.58;;;19.30;99.90;;;18.02;60.00;101428.88;4985443;28;20514;-79
2022/07/10 07:27:38;;;;;;;17.25;2.08;;;19.50;99.90;;;19.60;57.81;101433.81;4943490;28;20041;-79
2022/07/10 07:30:13;;;;;;;11.80;1.88;;;19.60;99.90;;;19.41;57.32;101428.97;4948077;28;20021;-78
2022/07/10 07:32:41;;;;;;;11.73;2.08;;;19.90;99.90;;;19.88;56.18;101435.31;4919548;28;20041;-77
2022/07/10 07:35:08;;;;;;;15.88;1.95;;;20.40;99.90;;;20.74;54.67;101435.13;4935655;28;20402;-79
2022/07/10 07:37:49;;;;;;;8.15;1.52;;;21.20;98.60;;;21.96;51.45;101448.47;4970954;28;20041;-78
2022/07/10 07:40:22;;;;;;;16.13;1.98;;;22.10;97.80;;;22.83;48.95;101429.47;4930440;22;20030;-77
2022/07/10 07:42:50;;;;;;;9.80;1.80;;;22.80;97.50;;;23.11;48.71;101437.81;4951399;28;20502;-78
2022/07/10 07:45:16;;;;;;;13.48;2.50;;;22.80;96.90;;;22.12;50.84;101435.47;4930272;28;20053;-78
2022/07/10 07:47:48;;;;;;;15.88;2.30;;;22.20;96.50;;;21.00;52.06;101431.22;4964560;28;20072;-78
2022/07/10 07:50:18;;;;;;;12.98;2.05;;;21.40;96.50;;;20.20;53.57;101426.72;4979709;28;20436;-78
2022/07/10 07:52:45;;;;;;;11.10;1.95;;;21.00;98.10;;;20.36;54.00;101430.88;4940433;28;20018;-78
2022/07/10 07:55:15;;;;;;;7.13;1.40;;;21.10;98.60;;;20.74;53.11;101427.09;4924092;28;20033;-77
2022/07/10 07:57:43;;;;;;;10.68;1.67;;;21.20;97.70;;;21.17;52.08;101429.88;4970422;28;20047;-77
2022/07/10 08:00:11;;;;;;;9.77;1.88;;;21.40;97.40;;;21.17;51.39;101443.28;4928612;22;20045;-78
2022/07/10 08:02:36;;;;;;;14.20;1.88;;;21.60;97.80;;;21.84;50.92;101449.50;4970418;28;20552;-78
2022/07/10 08:05:09;;;;;;;10.23;2.03;;;22.10;96.50;;;22.37;49.57;101446.84;4926677;28;20026;-77
2022/07/10 08:08:01;;;;;;;13.82;1.80;;;22.70;97.00;;;23.07;47.92;101447.13;4920765;28;20493;-78
2022/07/10 08:10:30;;;;;;;13.73;2.17;;;22.90;95.20;;;22.85;48.04;101443.59;4954486;28;20121;-79
2022/07/10 08:12:56;;;;;;;12.50;1.98;;;22.80;95.00;;;22.34;48.70;101444.44;4924891;28;20507;-78
2022/07/10 08:15:23;;;;;;;10.48;2.00;;;23.00;95.40;;;22.57;48.74;101446.97;4964081;28;20025;-77
2022/07/10 08:17:51;;;;;;;9.65;1.85;;;22.90;94.60;;;22.43;48.39;101435.59;4932238;28;20034;-78
2022/07/10 08:20:22;;;;;;;12.65;2.28;;;22.70;94.90;;;22.01;49.15;101445.41;4940280;28;20030;-76
2022/07/10 08:22:48;;;;;;;6.65;1.33;;;22.30;95.30;;;21.43;50.23;101449.25;4924747;28;20042;-78
2022/07/10 08:25:15;;;;;;;6.22;0.98;;;22.10;96.70;;;21.49;50.79;101430.00;4911955;28;20038;-77
2022/07/10 08:27:41;;;;;;;12.43;2.55;;;22.20;97.20;;;22.01;51.15;101440.03;4934140;28;20038;-78
2022/07/10 08:30:12;;;;;;;9.05;1.70;;;22.30;96.20;;;22.45;48.74;101440.81;4934924;28;20026;-78
2022/07/10 08:32:39;;;;;;;9.10;1.73;;;22.50;95.40;;;22.34;49.14;101443.59;4921831;28;20583;-78
2022/07/10 08:35:08;;;;;;;9.30;1.35;;;22.30;95.20;;;21.75;49.60;101443.09;4941129;28;20482;-77
2022/07/10 08:37:43;;;;;;;7.63;1.63;;;21.90;95.70;;;20.92;51.50;101428.31;4936646;28;20021;-78
2022/07/10 08:40:12;;;;;;;9.77;1.83;;;21.40;96.70;;;20.43;53.31;101430.31;4948436;28;21797;-78
2022/07/10 08:42:48;;;;;;;11.88;1.80;;;21.30;98.10;;;20.51;54.50;101421.66;4969573;28;20032;-78
2022/07/10 08:45:14;;;;;;;10.82;2.20;;;21.00;98.00;;;20.05;55.10;101419.84;4963360;28;20069;-78
2022/07/10 08:47:42;;;;;;;3.42;0.90;;;20.90;98.30;;;19.92;55.53;101411.91;4923672;28;20029;-77
2022/07/10 08:50:24;;;;;;;10.23;1.45;;;20.50;98.20;;;19.31;56.72;101417.28;4947028;28;20060;-77
2022/07/10 08:53:16;;;;;;;10.77;1.77;;;20.20;97.90;;;19.03;56.75;101405.91;4963999;28;20030;-78
2022/07/10 08:55:42;;;;;;;7.82;1.50;;;20.00;99.20;;;18.95;57.44;101413.59;4936951;28;20034;-77
2022/07/10 08:58:12;;;;;;;9.18;1.73;;;19.90;99.90;;;19.14;58.89;101421.16;4956301;28;20029;-78
2022/07/10 09:00:39;;;;;;;10.07;1.52;;;20.10;99.40;;;19.35;57.21;101423.22;4964319;28;20395;-78
2022/07/10 09:03:05;;;;;;;9.75;1.50;;;20.20;99.20;;;19.52;56.22;101417.50;4927129;28;20343;-78
2022/07/10 09:05:31;;;;;;;16.42;1.92;;;20.40;99.50;;;19.76;56.09;101412.22;4933658;28;20111;-77
2022/07/10 09:07:57;;;;;;;7.53;1.52;;;20.30;99.30;;;19.58;56.73;101403.69;4941412;28;20112;-79
2022/07/10 09:10:29;;;;;;;7.15;1.40;;;20.20;98.20;;;19.07;55.96;101403.88;4905655;28;20105;-78
2022/07/10 09:12:57;;;;;;;9.43;1.58;;;20.10;98.90;;;19.07;56.52;101406.53;4922297;28;20022;-79
2022/07/10 09:15:35;;;;;;;5.30;0.90;;;20.00;99.80;;;19.03;57.73;101413.91;4932886;28;20504;-78
2022/07/10 09:18:07;;;;;;;9.02;1.73;;;20.00;99.90;;;19.26;57.61;101406.03;4907331;28;20034;-77
2022/07/10 09:20:38;;;;;;;6.70;1.20;;;20.20;99.90;;;19.39;58.06;101412.19;4909428;28;20035;-79
2022/07/10 09:23:26;;;;;;;12.25;1.75;;;20.10;99.10;;;19.17;57.13;101401.38;4899765;28;20035;-77
2022/07/10 09:25:55;;;;;;;10.32;1.90;;;20.10;99.90;;;19.36;57.38;101399.09;4935124;28;20065;-78
2022/07/10 09:28:23;;;;;;;6.88;1.25;;;20.20;99.90;;;19.51;58.04;101404.28;4957854;28;20037;-76
2022/07/10 09:30:58;;;;;;;7.00;1.10;;;20.30;99.70;;;19.51;56.75;101396.25;4927661;28;20030;-78
2022/07/10 09:33:36;;;;;;;10.57;1.50;;;20.40;99.80;;;19.68;56.75;101403.88;4957863;28;20018;-77
2022/07/10 09:36:11;;;;;;;3.28;1.00;;;20.40;99.10;;;19.52;55.21;101401.47;4943194;28;20037;-77
2022/07/10 09:38:45;;;;;;;11.02;2.17;;;20.50;99.90;;;19.76;57.71;101396.19;4960151;28;20110;-78
2022/07/10 09:41:32;;;;;;;10.38;1.67;;;20.60;99.50;;;19.76;56.55;101406.88;4946826;28;20555;-78
2022/07/10 09:44:13;;;;;;;;;;;20.50;98.80;;;19.56;56.31;101402.94;4947993;28;20038;-79
2022/07/10 09:46:44;;;;;;;5.30;1.27;;;20.50;99.70;;;19.69;57.48;101400.22;4941567;28;22083;-77
2022/07/10 09:49:13;;;;;;;6.80;1.10;;;20.60;99.40;;;19.77;56.93;101392.53;4955667;28;20024;-78
2022/07/10 09:51:47;;;;;;;3.85;0.80;;;20.50;99.00;;;19.54;56.14;101388.84;4927991;28;20025;-77
2022/07/10 09:54:13;;;;;;;8.23;1.38;;;20.50;99.30;;;19.68;56.71;101394.03;4923736;28;20267;-78
2022/07/10 09:56:51;;;;;;;5.53;1.23;;;20.50;99.10;;;19.68;57.12;101395.88;4916620;28;20026;-76
2022/07/10 09:59:21;;;;;;;7.90;1.35;;;20.50;99.00;;;19.70;55.77;101396.63;4926153;28;20075;-78
2022/07/10 10:01:51;;;;;;;8.68;1.70;;;20.60;99.50;;;19.74;56.46;101400.78;4939460;28;20047;-78
2022/07/10 10:04:29;;;;;;;8.70;1.30;;;20.40;98.20;;;19.43;55.85;101391.47;4917331;28;20069;-80
2022/07/10 10:07:02;;;;;;;5.68;1.15;;;20.40;99.40;;;19.53;57.17;101394.34;4950813;28;20208;-78
2022/07/10 10:09:56;;;;;;;9.88;1.40;;;20.40;99.00;;;19.51;56.02;101402.44;4951305;28;24675;-78
2022/07/10 10:12:47;;;;;;;7.97;1.50;;;20.40;98.70;;;19.57;56.03;101393.16;4956393;28;20031;-78
2022/07/10 10:15:22;;;;;;;10.70;1.70;;;20.40;99.50;;;19.57;57.33;101394.00;4925120;28;20061;-77
2022/07/10 10:17:50;;;;;;;9.98;1.77;;;20.30;99.30;;;19.47;57.36;101399.13;4929219;28;20137;-78
2022/07/10 10:20:45;;;;;;;3.92;0.90;;;20.50;99.50;;;19.63;56.32;101387.31;4915543;28;20129;-79
2022/07/10 10:23:24;;;;;;;4.82;1.00;;;20.60;99.40;;;19.87;56.21;101382.00;4933273;28;20069;-77
2022/07/10 10:25:56;;;;;;;10.30;1.35;;;20.70;99.30;;;20.02;56.33;101391.53;4952306;28;20040;-77
2022/07/10 10:28:33;;;;;;;5.93;1.17;;;20.80;99.00;;;20.04;56.10;101394.06;4958801;28;20062;-78